Thomson, GA

1:00 AM EST on December 16, 2019 (GMT -0500)
Thomson-McDuffie County

Weather History for KHQU - October, 2019

Change the Weather History Date:

Thursday, October 24, 2019

  Actual Average (KDNL) Record (KDNL)
Temperature  
Mean Temperature 57 °F -  
Max Temperature 74 °F 71 °F 87 °F (2001)
Min Temperature 40 °F 53 °F 39 °F (1999)
Degree Days  
Heating Degree Days 8    
Growing Degree Days 7 (Base 50)    
Moisture  
Dew Point 47 °F    
Average Humidity 73    
Maximum Humidity 99    
Minimum Humidity 39    
Precipitation  
Precipitation 0.00 in - - ()
Sea Level Pressure  
Sea Level Pressure 30.24 in    
Wind  
Wind Speed 2 mph (SE)    
Max Wind Speed 12 mph    
Max Gust Speed -    
Visibility 10 miles    
Events      
Averages and records for this station are not official NWS values.
T = Trace of Precipitation, MM = Missing Value Source: NWS Daily Summary

Daily Weather History Graph

Daily Weather History Graph

Search for Another Location

Airport or City:

Astronomy

Oct. 24, 2019 Rise Set
Actual Time 7:41 AM EDT 6:46 PM EDT
Civil Twilight 7:16 AM EDT 7:11 PM EDT
Nautical Twilight 6:47 AM EDT 7:40 PM EDT
Astronomical Twilight 6:18 AM EDT 8:09 PM EDT
Moon 3:28 AM EDT (10/24) 4:57 PM EDT (10/24)
Length of Visible Light 11h 55m
Length of Day
11h 04m
Waning Crescent, 17% of the Moon is Illuminated
Oct 24
Waning Crescent
Oct 27
New
Nov 4
First Quarter
Nov 12
Full
Nov 19
Last Quarter

Hourly Weather History & Observations

Time (EDT) Temp. Dew Point Humidity Pressure Visibility Wind Dir Wind Speed Gust Speed Precip Events Conditions
12:15 AM 45.7 °F 44.6 °F 96% 30.22 in 10.0 mi Calm Calm - N/A   Clear
12:35 AM 45.7 °F 44.4 °F 95% 30.21 in 10.0 mi Calm Calm - N/A   Clear
12:55 AM 44.4 °F 43.9 °F 98% 30.21 in 10.0 mi Calm Calm - N/A   Clear
1:15 AM 44.4 °F 43.7 °F 97% 30.21 in 10.0 mi North - - N/A   Clear
1:30 AM 43.9 °F 43.3 °F 98% 30.22 in 10.0 mi North - - N/A   Clear
1:55 AM 43.7 °F 43.2 °F 98% 30.22 in 10.0 mi Calm Calm - N/A   Clear
2:35 AM 42.8 °F 42.1 °F 97% 30.22 in 10.0 mi Calm Calm - N/A   Clear
2:55 AM 43.5 °F 42.4 °F 96% 30.22 in 10.0 mi North - - N/A   Clear
3:15 AM 42.4 °F 41.9 °F 98% 30.22 in 10.0 mi North - - N/A   Clear
3:35 AM 42.1 °F 41.7 °F 99% 30.21 in 10.0 mi North - - N/A   Clear
3:55 AM 41.7 °F 41.4 °F 99% 30.21 in 10.0 mi North - - N/A   Clear
4:15 AM 41.9 °F 41.5 °F 99% 30.22 in 10.0 mi North - - N/A   Clear
4:35 AM 41.5 °F 41.2 °F 99% 30.21 in 10.0 mi North - - N/A   Clear
4:55 AM 41.4 °F 40.8 °F 98% 30.21 in 10.0 mi North - - N/A   Clear
5:15 AM 41.2 °F 40.6 °F 98% 30.22 in 10.0 mi North - - N/A   Clear
5:35 AM 41.0 °F 40.1 °F 97% 30.24 in 10.0 mi North - - N/A   Clear
5:55 AM 41.0 °F 40.3 °F 97% 30.24 in 10.0 mi North - - N/A   Clear
6:15 AM 40.3 °F 39.7 °F 98% 30.25 in 10.0 mi Calm Calm - N/A   Clear
6:35 AM 40.8 °F 40.1 °F 97% 30.25 in 10.0 mi Calm Calm - N/A   Clear
6:55 AM 40.1 °F 39.6 °F 98% 30.26 in 10.0 mi Calm Calm - N/A   Clear
7:15 AM 40.6 °F 39.6 °F 96% 30.25 in 10.0 mi Calm Calm - N/A   Clear
7:35 AM 40.5 °F 39.4 °F 96% 30.26 in 10.0 mi Calm Calm - N/A   Clear
7:55 AM 40.5 °F 40.1 °F 99% 30.27 in 10.0 mi Calm Calm - N/A   Clear
8:15 AM 41.0 °F 40.1 °F 97% 30.27 in 10.0 mi Calm Calm - N/A   Clear
8:35 AM 41.5 °F 40.5 °F 96% 30.27 in 10.0 mi Calm Calm - N/A   Clear
8:55 AM 42.3 °F 41.7 °F 98% 30.28 in 10.0 mi Calm Calm - N/A   Clear
9:15 AM 44.4 °F 43.5 °F 97% 30.29 in 10.0 mi Calm Calm - N/A   Clear
9:35 AM 47.8 °F 45.9 °F 93% 30.29 in 10.0 mi Calm Calm - N/A   Clear
9:55 AM 51.4 °F 47.7 °F 87% 30.29 in 10.0 mi Calm Calm - N/A   Clear
10:15 AM 54.7 °F 50.0 °F 84% 30.29 in 10.0 mi Calm Calm - N/A   Clear
10:35 AM 58.5 °F 47.8 °F 68% 30.29 in 10.0 mi SSE 5.8 mph - N/A   Clear
10:55 AM 61.0 °F 48.2 °F 63% 30.29 in 10.0 mi SSE 6.9 mph - N/A   Clear
11:15 AM 63.9 °F 47.8 °F 56% 30.30 in 10.0 mi SSE 5.8 mph - N/A   Clear
11:35 AM 66.2 °F 48.4 °F 53% 30.29 in 10.0 mi SSE 4.6 mph - N/A   Clear
11:55 AM 65.7 °F 47.3 °F 51% 30.29 in 10.0 mi SE 8.1 mph - N/A   Clear
12:15 PM 67.5 °F 45.9 °F 46% 30.28 in 10.0 mi SE 11.5 mph - N/A   Clear
12:35 PM 68.9 °F 46.2 °F 44% 30.28 in 10.0 mi South 6.9 mph - N/A   Clear
12:55 PM 70.5 °F 45.7 °F 41% 30.27 in 10.0 mi SSE 5.8 mph - N/A   Scattered Clouds
1:15 PM 71.2 °F 46.6 °F 41% 30.27 in 10.0 mi SSE 5.8 mph - N/A   Clear
1:35 PM 71.2 °F 45.7 °F 40% 30.26 in 10.0 mi SE 9.2 mph - N/A   Scattered Clouds
1:55 PM 70.3 °F 46.8 °F 43% 30.25 in 10.0 mi South 4.6 mph - N/A   Mostly Cloudy
2:15 PM 72.9 °F 47.1 °F 40% 30.24 in 10.0 mi South 3.5 mph - N/A   Mostly Cloudy
2:35 PM 74.3 °F 47.8 °F 39% 30.23 in 10.0 mi South 6.9 mph - N/A   Mostly Cloudy
2:55 PM 72.7 °F 47.8 °F 41% 30.22 in 10.0 mi Calm Calm - N/A   Scattered Clouds
3:15 PM 72.9 °F 47.8 °F 41% 30.23 in 10.0 mi East 3.5 mph - N/A   Scattered Clouds
3:35 PM 72.1 °F 48.6 °F 43% 30.22 in 10.0 mi East 5.8 mph - N/A   Scattered Clouds
3:55 PM 72.1 °F 49.6 °F 45% 30.21 in 10.0 mi East 8.1 mph - N/A   Clear
4:15 PM 71.8 °F 49.3 °F 45% 30.22 in 10.0 mi ESE 8.1 mph - N/A   Clear
4:35 PM 71.8 °F 48.9 °F 44% 30.21 in 10.0 mi ESE 8.1 mph - N/A   Clear
4:55 PM 71.2 °F 49.3 °F 46% 30.21 in 10.0 mi East 5.8 mph - N/A   Clear
5:15 PM 70.9 °F 50.0 °F 48% 30.21 in 10.0 mi East 5.8 mph - N/A   Clear
5:55 PM 70.0 °F 51.1 °F 51% 30.21 in 10.0 mi East 4.6 mph - N/A   Clear
6:15 PM 68.9 °F 52.0 °F 55% 30.20 in 10.0 mi SE 5.8 mph - N/A   Clear
6:35 PM 68.0 °F 52.5 °F 58% 30.20 in 10.0 mi ESE 3.5 mph - N/A   Clear
6:55 PM 66.7 °F 53.6 °F 63% 30.21 in 10.0 mi East 4.6 mph - N/A   Clear
7:15 PM 65.3 °F 54.7 °F 68% 30.22 in 10.0 mi Calm Calm - N/A   Clear
7:35 PM 64.8 °F 54.1 °F 68% 30.22 in 10.0 mi East 4.6 mph - N/A   Clear
7:55 PM 63.3 °F 55.4 °F 75% 30.23 in 10.0 mi Calm Calm - N/A   Mostly Cloudy
8:15 PM 65.1 °F 53.4 °F 66% 30.23 in 10.0 mi ESE 5.8 mph - N/A   Mostly Cloudy
8:35 PM 64.8 °F 53.1 °F 66% 30.23 in 10.0 mi SE 4.6 mph - N/A   Scattered Clouds
8:55 PM 63.9 °F 52.7 °F 67% 30.24 in 10.0 mi SE 4.6 mph - N/A   Clear
9:15 PM 63.1 °F 53.1 °F 70% 30.24 in 10.0 mi ESE 4.6 mph - N/A   Scattered Clouds
9:35 PM 62.6 °F 52.9 °F 70% 30.24 in 10.0 mi ESE 4.6 mph - N/A   Scattered Clouds
9:55 PM 62.8 °F 53.2 °F 71% 30.26 in 10.0 mi ESE 3.5 mph - N/A   Mostly Cloudy
10:15 PM 63.1 °F 53.2 °F 70% 30.26 in 10.0 mi ESE 3.5 mph - N/A   Overcast
10:35 PM 63.1 °F 53.2 °F 70% 30.27 in 10.0 mi ESE 4.6 mph - N/A   Overcast
10:55 PM 63.5 °F 51.8 °F 66% 30.26 in 10.0 mi ESE 6.9 mph - N/A   Overcast
11:15 PM 63.7 °F 51.8 °F 65% 30.27 in 10.0 mi SE 4.6 mph - N/A   Overcast
11:35 PM 64.0 °F 51.6 °F 64% 30.27 in 10.0 mi SE 5.8 mph - N/A   Overcast
11:55 PM 63.9 °F 51.6 °F 64% 30.26 in 10.0 mi SE 6.9 mph - N/A   Overcast